Time;durP1;ratioP1;P1;durP2;ratioP2;P2;SDS_P1;SDS_P2;PMS_P1;PMS_P2;Temp;Humidity;BMP_temperature;BMP_pressure;BME280_temperature;BME280_humidity;BME280_pressure;Samples;Min_cycle;Max_cycle;Signal;HPM_P1;HPM_P2
2022/03/14 00:01:24;;;;;;;15.50;11.55;;;11.10;97.50;;;;;;4972239;28;20389;-62
2022/03/14 00:03:53;;;;;;;17.70;11.57;;;10.90;98.70;;;;;;4971800;28;20497;-65
2022/03/14 00:06:19;;;;;;;15.20;10.70;;;10.90;98.00;;;;;;4954640;28;20046;-65
2022/03/14 00:08:46;;;;;;;17.30;10.38;;;10.70;99.40;;;;;;4972048;28;20073;-64
2022/03/14 00:11:16;;;;;;;18.90;10.50;;;10.70;99.60;;;;;;4971857;28;20050;-65
2022/03/14 00:13:43;;;;;;;17.02;11.10;;;;;;;;;;4971879;28;20519;-64
2022/03/14 00:16:09;;;;;;;17.02;10.90;;;10.60;99.90;;;;;;4954478;28;20061;-64
2022/03/14 00:18:36;;;;;;;14.48;9.68;;;10.60;99.90;;;;;;4971799;28;20046;-65
2022/03/14 00:21:02;;;;;;;13.45;9.82;;;10.60;99.90;;;;;;4954378;28;20047;-65
2022/03/14 00:23:28;;;;;;;16.42;10.52;;;10.70;99.90;;;;;;4954533;28;20047;-64
2022/03/14 00:25:54;;;;;;;13.73;9.15;;;10.80;99.90;;;;;;4954382;28;20054;-64
2022/03/14 00:28:20;;;;;;;14.32;9.15;;;10.80;99.90;;;;;;4971653;28;20401;-65
2022/03/14 00:30:46;;;;;;;14.35;9.52;;;10.80;99.90;;;;;;4971568;28;20035;-65
2022/03/14 00:33:11;;;;;;;13.00;8.38;;;10.80;99.90;;;;;;4971252;28;20046;-66
2022/03/14 00:35:37;;;;;;;13.43;9.77;;;10.60;99.90;;;;;;4954169;28;20061;-64
2022/03/14 00:38:03;;;;;;;13.10;9.13;;;10.80;99.90;;;;;;4971473;28;20049;-64
2022/03/14 00:40:30;;;;;;;14.43;9.40;;;10.70;99.90;;;;;;4954305;28;20046;-64
2022/03/14 00:42:55;;;;;;;12.48;9.55;;;10.80;99.90;;;;;;4971655;28;20564;-64
2022/03/14 00:45:25;;;;;;;12.10;8.50;;;10.80;99.90;;;;;;4942537;28;20058;-64
2022/03/14 00:47:51;;;;;;;14.65;9.70;;;10.90;99.90;;;;;;4952439;29;20035;-64
2022/03/14 00:50:16;;;;;;;11.88;8.98;;;10.80;99.90;;;;;;4952336;28;20042;-64
2022/03/14 00:52:42;;;;;;;13.05;9.75;;;10.70;99.90;;;;;;4952010;29;20481;-64
2022/03/14 00:55:08;;;;;;;13.13;9.57;;;;;;;;;;4935089;29;20100;-65
2022/03/14 00:57:34;;;;;;;16.40;9.52;;;10.60;99.90;;;;;;4951970;29;20097;-64
2022/03/14 00:59:59;;;;;;;11.90;8.80;;;10.60;99.90;;;;;;4951865;28;20043;-64
2022/03/14 01:02:25;;;;;;;11.82;9.35;;;10.60;99.90;;;;;;4952110;29;20181;-64
2022/03/14 01:04:51;;;;;;;14.70;9.63;;;10.60;99.90;;;;;;4934750;29;20599;-65
2022/03/14 01:07:17;;;;;;;10.70;8.50;;;10.60;99.90;;;;;;4952117;29;20051;-62
2022/03/14 01:09:42;;;;;;;17.45;10.60;;;10.60;99.90;;;;;;4951842;29;20382;-63
2022/03/14 01:12:09;;;;;;;12.98;9.40;;;10.50;99.90;;;;;;4934720;28;20047;-62
2022/03/14 01:14:34;;;;;;;12.25;9.32;;;10.40;99.90;;;;;;4951661;29;20051;-63
2022/03/14 01:17:00;;;;;;;14.52;9.43;;;10.40;99.90;;;;;;4934397;29;20052;-63
2022/03/14 01:19:26;;;;;;;13.93;9.82;;;10.30;99.90;;;;;;4951688;29;20097;-63
2022/03/14 01:21:51;;;;;;;15.13;9.73;;;10.20;99.90;;;;;;4951831;28;20092;-62
2022/03/14 01:24:17;;;;;;;13.52;9.75;;;10.20;99.90;;;;;;4951600;29;20508;-63
2022/03/14 01:26:44;;;;;;;13.20;9.75;;;10.10;99.90;;;;;;4951676;28;20481;-63
2022/03/14 01:29:10;;;;;;;12.48;8.90;;;10.20;99.90;;;;;;4934731;29;20055;-63
2022/03/14 01:31:36;;;;;;;13.05;9.57;;;10.30;99.90;;;;;;4951442;28;20069;-63
2022/03/14 01:34:02;;;;;;;13.25;8.85;;;10.10;99.90;;;;;;4934345;29;20058;-62
2022/03/14 01:36:28;;;;;;;14.85;9.30;;;10.20;99.90;;;;;;4934246;29;20047;-63
2022/03/14 01:38:55;;;;;;;13.52;9.45;;;10.20;99.90;;;;;;4951528;29;20050;-64
2022/03/14 01:41:22;;;;;;;11.18;8.90;;;10.10;99.90;;;;;;4954388;28;20043;-64
2022/03/14 01:43:48;;;;;;;11.95;9.40;;;10.30;99.90;;;;;;4937827;29;20118;-64
2022/03/14 01:46:16;;;;;;;12.10;8.90;;;10.10;99.90;;;;;;4954658;28;20047;-64
2022/03/14 01:48:43;;;;;;;12.20;9.50;;;10.20;99.90;;;;;;4954880;29;20047;-64
2022/03/14 01:51:08;;;;;;;17.15;9.80;;;10.00;99.90;;;;;;4921517;29;20511;-64
2022/03/14 01:53:35;;;;;;;14.30;9.48;;;10.10;99.90;;;;;;4954692;29;20039;-64
2022/03/14 01:56:01;;;;;;;12.75;8.80;;;10.00;99.90;;;;;;4954645;29;20055;-64
2022/03/14 01:58:26;;;;;;;12.23;9.43;;;10.20;99.90;;;;;;4937546;29;20039;-64
2022/03/14 02:00:52;;;;;;;11.75;8.55;;;10.30;99.90;;;;;;4937527;29;20047;-64
2022/03/14 02:03:18;;;;;;;11.18;8.10;;;10.20;99.90;;;;;;4954426;29;20047;-64
2022/03/14 02:05:45;;;;;;;12.25;8.20;;;10.30;99.90;;;;;;4954418;29;20047;-64
2022/03/14 02:08:11;;;;;;;10.13;7.22;;;10.30;99.90;;;;;;4954503;28;20043;-65
2022/03/14 02:10:38;;;;;;;10.35;7.88;;;10.40;99.90;;;;;;4954422;28;20039;-64
2022/03/14 02:13:09;;;;;;;11.38;7.68;;;10.30;99.90;;;;;;4954330;28;20051;-64
2022/03/14 02:15:35;;;;;;;9.27;7.38;;;10.20;99.90;;;;;;4954269;29;20126;-64
2022/03/14 02:18:02;;;;;;;12.38;7.50;;;10.20;99.90;;;;;;4954488;29;20043;-64
2022/03/14 02:20:27;;;;;;;9.43;6.68;;;10.20;99.90;;;;;;4954063;28;20126;-64
2022/03/14 02:22:53;;;;;;;10.02;7.75;;;10.00;99.90;;;;;;4954375;29;20123;-64
2022/03/14 02:25:19;;;;;;;9.90;7.03;;;10.20;99.90;;;;;;4937168;29;20058;-64
2022/03/14 02:27:44;;;;;;;8.68;5.85;;;10.30;99.90;;;;;;4954154;29;20527;-64
2022/03/14 02:30:10;;;;;;;9.75;6.90;;;10.40;99.90;;;;;;4936847;28;20409;-64
2022/03/14 02:32:41;;;;;;;8.85;6.00;;;10.40;99.90;;;;;;4936904;29;20401;-65
2022/03/14 02:35:08;;;;;;;8.25;6.15;;;10.30;99.90;;;;;;4953860;29;20055;-65
2022/03/14 02:37:33;;;;;;;9.25;6.55;;;10.30;99.90;;;;;;4936668;29;20049;-65
2022/03/14 02:39:59;;;;;;;8.57;6.45;;;10.40;99.90;;;;;;4953774;28;20130;-65
2022/03/14 02:42:25;;;;;;;7.55;6.30;;;10.30;99.90;;;;;;4936743;29;20123;-63
2022/03/14 02:44:50;;;;;;;7.78;5.97;;;10.50;99.90;;;;;;4953255;28;20038;-63
2022/03/14 02:47:16;;;;;;;8.02;5.50;;;10.50;99.90;;;;;;4936665;29;20045;-62
2022/03/14 02:49:41;;;;;;;8.07;6.35;;;10.30;99.90;;;;;;4936926;29;20047;-63
2022/03/14 02:52:07;;;;;;;9.95;6.50;;;10.20;99.90;;;;;;4952756;28;20039;-63
2022/03/14 02:54:32;;;;;;;7.88;6.30;;;10.30;99.90;;;;;;4953550;29;20039;-63
2022/03/14 02:56:58;;;;;;;9.57;6.43;;;10.30;99.90;;;;;;4953653;29;20054;-62
2022/03/14 02:59:24;;;;;;;10.05;6.20;;;10.40;99.90;;;;;;4953620;29;20047;-62
2022/03/14 03:01:50;;;;;;;8.70;6.22;;;10.30;99.90;;;;;;4953754;28;20050;-63
2022/03/14 03:04:16;;;;;;;8.43;6.55;;;10.30;99.90;;;;;;4953581;29;20436;-64
2022/03/14 03:06:42;;;;;;;10.77;6.53;;;10.30;99.90;;;;;;4936460;29;20441;-64
2022/03/14 03:09:08;;;;;;;8.55;6.50;;;10.40;99.90;;;;;;4936289;28;20118;-64
2022/03/14 03:11:33;;;;;;;8.13;6.00;;;10.30;99.90;;;;;;4953345;28;20110;-64
2022/03/14 03:14:00;;;;;;;8.45;5.82;;;10.30;99.90;;;;;;4953404;29;20039;-64
2022/03/14 03:16:26;;;;;;;8.52;5.63;;;10.20;99.90;;;;;;4953520;29;20093;-64
2022/03/14 03:18:51;;;;;;;7.63;5.45;;;10.20;99.90;;;;;;4936328;29;20044;-64
2022/03/14 03:21:17;;;;;;;7.35;5.63;;;10.30;99.90;;;;;;4936194;28;20532;-64
2022/03/14 03:23:43;;;;;;;8.05;5.78;;;10.30;99.90;;;;;;4953359;28;20035;-62
2022/03/14 03:26:09;;;;;;;6.45;5.28;;;10.30;99.90;;;;;;4936200;29;20051;-64
2022/03/14 03:28:35;;;;;;;5.82;4.85;;;10.40;99.90;;;;;;4953159;29;20043;-63
2022/03/14 03:31:13;;;;;;;5.07;3.92;;;10.20;99.90;;;;;;4953362;28;20058;-63
2022/03/14 03:33:39;;;;;;;8.13;4.55;;;10.40;99.90;;;;;;4952898;29;20421;-63
2022/03/14 03:36:07;;;;;;;8.38;4.78;;;10.40;99.90;;;;;;4936004;28;20514;-64
2022/03/14 03:38:33;;;;;;;5.90;4.47;;;10.40;99.90;;;;;;4936224;29;20054;-63
2022/03/14 03:40:59;;;;;;;8.48;4.32;;;10.30;99.90;;;;;;4935763;29;20058;-63
2022/03/14 03:43:25;;;;;;;5.03;3.78;;;10.40;99.90;;;;;;4952963;29;20035;-63
2022/03/14 03:45:51;;;;;;;5.75;4.45;;;;;;;;;;4935587;28;20130;-63
2022/03/14 03:48:17;;;;;;;5.60;4.15;;;10.40;99.90;;;;;;4936079;29;20539;-63
2022/03/14 03:50:43;;;;;;;7.13;4.93;;;10.20;99.90;;;;;;4935661;29;20051;-63
2022/03/14 03:53:09;;;;;;;5.40;3.92;;;10.40;99.90;;;;;;4935717;29;20130;-62
2022/03/14 03:55:34;;;;;;;5.03;3.63;;;10.30;99.90;;;;;;4935840;29;20126;-62
2022/03/14 03:58:00;;;;;;;5.05;4.18;;;10.30;99.90;;;;;;4952734;29;20039;-62
2022/03/14 04:00:26;;;;;;;5.20;4.20;;;10.20;99.90;;;;;;4953322;28;20042;-62
2022/03/14 04:02:52;;;;;;;6.72;4.47;;;10.50;99.90;;;;;;4952576;29;20088;-63
2022/03/14 04:05:19;;;;;;;5.45;4.45;;;10.30;99.90;;;;;;4952520;29;20043;-64
2022/03/14 04:07:46;;;;;;;4.90;3.83;;;10.20;99.90;;;;;;4952803;29;20058;-65
2022/03/14 04:10:13;;;;;;;6.25;4.13;;;10.10;99.90;;;;;;4952513;28;20046;-65
2022/03/14 04:12:39;;;;;;;6.18;4.28;;;9.90;99.90;;;;;;4935350;29;20051;-65
2022/03/14 04:15:09;;;;;;;4.72;3.88;;;10.00;99.90;;;;;;4952710;28;20047;-65
2022/03/14 04:17:36;;;;;;;4.20;3.28;;;9.80;99.90;;;;;;4952811;29;20047;-65
2022/03/14 04:20:04;;;;;;;5.53;3.72;;;9.90;99.90;;;;;;4952470;28;20054;-64
2022/03/14 04:22:30;;;;;;;3.80;3.22;;;9.80;99.90;;;;;;4951304;29;20039;-65
2022/03/14 04:24:56;;;;;;;4.25;3.55;;;10.00;99.90;;;;;;4952361;29;20489;-65
2022/03/14 04:27:22;;;;;;;4.65;3.90;;;10.10;99.90;;;;;;4919535;29;20050;-64
2022/03/14 04:29:48;;;;;;;5.10;3.10;;;10.20;99.90;;;;;;4952477;29;20047;-65
2022/03/14 04:32:13;;;;;;;3.88;3.03;;;10.30;99.90;;;;;;4952454;28;20045;-65
2022/03/14 04:34:39;;;;;;;5.47;2.92;;;10.20;99.90;;;;;;4952028;29;20105;-65
2022/03/14 04:37:05;;;;;;;4.80;3.40;;;10.00;99.90;;;;;;4952133;29;20052;-65
2022/03/14 04:39:31;;;;;;;4.25;3.25;;;10.30;99.90;;;;;;4952233;29;20036;-65
2022/03/14 04:41:57;;;;;;;4.05;2.95;;;10.30;99.90;;;;;;4951985;28;20106;-65
2022/03/14 04:44:23;;;;;;;3.85;3.08;;;10.40;99.90;;;;;;4952121;28;20040;-65
2022/03/14 04:46:49;;;;;;;3.97;2.75;;;10.20;99.90;;;;;;4934993;29;20062;-65
2022/03/14 04:49:15;;;;;;;5.25;3.35;;;10.20;99.90;;;;;;4952108;29;20168;-65
2022/03/14 04:51:40;;;;;;;3.35;2.72;;;10.10;99.90;;;;;;4952254;28;20169;-64
2022/03/14 04:54:06;;;;;;;3.80;2.88;;;10.20;99.90;;;;;;4952121;28;20118;-65
2022/03/14 04:56:32;;;;;;;3.95;2.78;;;10.20;99.90;;;;;;4934789;28;20045;-65
2022/03/14 04:58:58;;;;;;;3.38;2.70;;;10.20;99.90;;;;;;4952067;29;20035;-65
2022/03/14 05:01:24;;;;;;;3.20;2.78;;;10.20;99.90;;;;;;4959975;28;20039;-65
2022/03/14 05:03:51;;;;;;;3.60;3.08;;;10.20;99.90;;;;;;4952539;28;20043;-64
2022/03/14 05:06:16;;;;;;;3.90;3.10;;;10.20;99.90;;;;;;4971068;28;20054;-64
2022/03/14 05:08:42;;;;;;;3.00;2.60;;;10.20;99.90;;;;;;4967692;28;20051;-63
2022/03/14 05:11:10;;;;;;;3.30;2.58;;;10.20;99.90;;;;;;4967909;28;20030;-63
2022/03/14 05:13:37;;;;;;;4.40;3.00;;;10.20;99.90;;;;;;4970013;28;20043;-63
2022/03/14 05:16:03;;;;;;;3.45;2.80;;;;;;;;;;4955391;28;20055;-63
2022/03/14 05:18:28;;;;;;;3.58;2.97;;;10.30;99.90;;;;;;4952054;28;20054;-64
2022/03/14 05:20:54;;;;;;;3.63;2.92;;;10.30;99.90;;;;;;4970995;28;20039;-64
2022/03/14 05:23:20;;;;;;;2.97;2.67;;;10.40;99.90;;;;;;4955863;28;20458;-64
2022/03/14 05:25:46;;;;;;;3.33;2.78;;;10.40;99.90;;;;;;4955472;28;20082;-64
2022/03/14 05:28:11;;;;;;;4.05;2.95;;;10.50;99.90;;;;;;4956001;28;20093;-64
2022/03/14 05:30:37;;;;;;;5.07;2.92;;;10.40;99.90;;;;;;4972029;28;20088;-64
2022/03/14 05:33:03;;;;;;;3.22;2.88;;;;;;;;;;4953764;28;20054;-64
2022/03/14 05:35:28;;;;;;;3.47;2.90;;;10.60;99.90;;;;;;4955148;28;20054;-64
2022/03/14 05:37:54;;;;;;;6.10;2.90;;;10.50;99.90;;;;;;4970064;28;20039;-64
2022/03/14 05:40:20;;;;;;;3.10;2.65;;;10.50;99.90;;;;;;4972578;28;20047;-64
2022/03/14 05:42:50;;;;;;;3.05;2.53;;;10.60;99.90;;;;;;4952993;28;20034;-65
2022/03/14 05:45:16;;;;;;;4.15;2.78;;;10.50;99.90;;;;;;4967615;28;20047;-66
2022/03/14 05:47:42;;;;;;;3.20;2.67;;;10.40;99.90;;;;;;4972514;28;20126;-66
2022/03/14 05:50:08;;;;;;;2.92;2.63;;;10.40;99.90;;;;;;4970690;28;20114;-65
2022/03/14 05:52:34;;;;;;;3.50;2.85;;;10.40;99.90;;;;;;4969768;28;20043;-65
2022/03/14 05:54:59;;;;;;;3.55;3.10;;;10.40;99.90;;;;;;4972633;28;20087;-65
2022/03/14 05:57:25;;;;;;;3.58;2.78;;;;;;;;;;4954737;28;20149;-65
2022/03/14 05:59:51;;;;;;;4.90;3.42;;;;;;;;;;4969578;28;20127;-60
2022/03/14 06:02:24;;;;;;;3.42;2.97;;;10.40;99.90;;;;;;4964492;28;20049;-60
2022/03/14 06:04:51;;;;;;;3.38;2.83;;;10.50;99.90;;;;;;4968026;28;20057;-61
2022/03/14 06:07:21;;;;;;;3.35;3.03;;;10.10;99.90;;;;;;4971063;28;20039;-60
2022/03/14 06:09:50;;;;;;;6.22;3.40;;;10.50;99.90;;;;;;4951902;28;20043;-62
2022/03/14 06:12:27;;;;;;;3.33;2.47;;;10.30;99.90;;;;;;4952479;28;20054;-64
2022/03/14 06:14:54;;;;;;;5.47;3.50;;;10.20;99.90;;;;;;4952179;28;20099;-64
2022/03/14 06:17:21;;;;;;;3.40;2.80;;;;;;;;;;4969403;28;20042;-63
2022/03/14 06:19:47;;;;;;;4.13;3.50;;;;;;;;;;4984865;28;20048;-63
2022/03/14 06:22:17;;;;;;;2.80;2.47;;;10.10;99.90;;;;;;5051985;28;20049;-63
2022/03/14 06:24:44;;;;;;;3.38;2.78;;;10.00;99.90;;;;;;5051985;28;20033;-63
2022/03/14 06:27:10;;;;;;;3.28;2.90;;;10.00;99.90;;;;;;5034175;28;20502;-63
2022/03/14 06:29:36;;;;;;;4.28;3.63;;;;;;;;;;5021296;28;20125;-63
2022/03/14 06:32:02;;;;;;;3.75;2.80;;;10.00;99.90;;;;;;4966962;28;20089;-64
2022/03/14 06:34:28;;;;;;;3.60;3.30;;;9.90;99.90;;;;;;4968864;28;20142;-63
2022/03/14 06:36:54;;;;;;;3.42;2.78;;;;;;;;;;4952692;28;20125;-63
2022/03/14 06:39:20;;;;;;;4.47;3.22;;;;;;;;;;4950157;28;20039;-65
2022/03/14 06:41:46;;;;;;;4.07;3.25;;;;;;;;;;4967999;28;20042;-65
2022/03/14 06:44:13;;;;;;;5.03;3.53;;;10.00;99.90;;;;;;4963121;28;20050;-65
2022/03/14 06:46:38;;;;;;;5.78;3.50;;;10.00;99.90;;;;;;4964992;28;20054;-64
2022/03/14 06:49:04;;;;;;;3.97;3.58;;;10.00;99.90;;;;;;4947143;28;20099;-65
2022/03/14 06:51:29;;;;;;;5.70;3.28;;;9.70;99.90;;;;;;4968014;28;20085;-65
2022/03/14 06:53:55;;;;;;;5.18;3.38;;;;;;;;;;4949826;28;20051;-65
2022/03/14 06:56:22;;;;;;;4.32;3.63;;;10.00;99.90;;;;;;5002715;28;20049;-63
2022/03/14 06:58:48;;;;;;;4.93;3.78;;;;;;;;;;5036843;28;20047;-63
2022/03/14 07:01:13;;;;;;;5.75;3.72;;;9.80;99.90;;;;;;4955261;28;20047;-64
2022/03/14 07:03:39;;;;;;;4.97;4.13;;;9.90;99.90;;;;;;4972823;28;20088;-62
2022/03/14 07:06:05;;;;;;;4.43;4.00;;;10.00;99.90;;;;;;4972592;28;20050;-62
2022/03/14 07:08:30;;;;;;;4.80;4.03;;;10.10;99.90;;;;;;4955189;28;20047;-62
2022/03/14 07:10:56;;;;;;;4.80;3.90;;;9.90;99.90;;;;;;4972829;28;20404;-62
2022/03/14 07:13:22;;;;;;;5.22;4.18;;;9.80;99.90;;;;;;4972682;28;20042;-62
2022/03/14 07:15:47;;;;;;;5.45;4.40;;;9.90;99.90;;;;;;4972737;28;20035;-62
2022/03/14 07:18:13;;;;;;;7.50;4.35;;;10.00;99.90;;;;;;4972545;28;20042;-62
2022/03/14 07:20:39;;;;;;;5.55;4.30;;;9.90;99.90;;;;;;4972436;28;20051;-63
2022/03/14 07:23:06;;;;;;;5.57;4.57;;;10.10;99.90;;;;;;4972491;28;20038;-64
2022/03/14 07:25:35;;;;;;;5.25;4.40;;;9.90;99.90;;;;;;4955352;28;20070;-62
2022/03/14 07:28:07;;;;;;;5.07;4.25;;;9.90;99.90;;;;;;4954144;28;20061;-63
2022/03/14 07:30:33;;;;;;;5.25;4.50;;;9.90;99.90;;;;;;4968018;28;20041;-63
2022/03/14 07:32:59;;;;;;;5.88;4.43;;;9.90;99.90;;;;;;4953204;28;20041;-67
2022/03/14 07:35:26;;;;;;;6.00;4.63;;;9.80;99.90;;;;;;4952143;29;20054;-66
2022/03/14 07:37:53;;;;;;;5.68;5.03;;;9.90;99.90;;;;;;4947354;28;20048;-63
2022/03/14 07:40:19;;;;;;;5.90;4.70;;;9.90;99.90;;;;;;4954671;28;20039;-64
2022/03/14 07:42:47;;;;;;;5.03;4.25;;;9.90;99.90;;;;;;4952937;28;20436;-64
2022/03/14 07:45:15;;;;;;;5.10;4.40;;;9.90;99.90;;;;;;4962010;28;20603;-62
2022/03/14 07:47:40;;;;;;;5.88;4.93;;;9.80;99.90;;;;;;4951555;29;20043;-62
2022/03/14 07:50:08;;;;;;;5.80;4.63;;;10.00;99.90;;;;;;4950095;28;20080;-64
2022/03/14 07:52:34;;;;;;;6.47;5.10;;;10.00;99.90;;;;;;4967298;28;20051;-65
2022/03/14 07:55:00;;;;;;;6.55;5.32;;;9.90;99.90;;;;;;4953543;28;20051;-65
2022/03/14 07:57:26;;;;;;;6.57;5.32;;;10.00;99.90;;;;;;4955974;28;20049;-65
2022/03/14 07:59:52;;;;;;;7.90;6.25;;;9.90;99.90;;;;;;4934612;29;20093;-65
2022/03/14 08:02:18;;;;;;;8.23;6.20;;;10.00;99.90;;;;;;4961700;28;20035;-65
2022/03/14 08:04:43;;;;;;;7.50;6.30;;;10.10;99.90;;;;;;4955944;28;20086;-66
2022/03/14 08:07:09;;;;;;;9.00;6.68;;;9.90;99.90;;;;;;4945004;28;20059;-66
2022/03/14 08:09:34;;;;;;;7.88;6.32;;;10.10;99.90;;;;;;4957813;28;20039;-64
2022/03/14 08:12:03;;;;;;;9.00;7.00;;;10.10;99.90;;;;;;4950966;28;20050;-65
2022/03/14 08:14:29;;;;;;;9.95;8.13;;;;;;;;;;4960336;28;20063;-66
2022/03/14 08:16:55;;;;;;;11.57;8.60;;;;;;;;;;4936777;28;20142;-65
2022/03/14 08:19:21;;;;;;;10.30;8.65;;;10.10;99.90;;;;;;4933974;29;20509;-66
2022/03/14 08:21:47;;;;;;;11.18;8.68;;;10.10;99.90;;;;;;4942478;28;20116;-66
2022/03/14 08:24:13;;;;;;;10.77;8.40;;;10.10;99.90;;;;;;4955462;28;20492;-65
2022/03/14 08:26:39;;;;;;;11.00;8.82;;;10.00;99.90;;;;;;4968338;28;20047;-66
2022/03/14 08:29:05;;;;;;;13.40;9.00;;;10.10;99.90;;;;;;4946703;28;20511;-64
2022/03/14 08:31:32;;;;;;;10.85;9.05;;;;;;;;;;4961815;28;20073;-64
2022/03/14 08:33:58;;;;;;;18.35;13.07;;;;;;;;;;4961141;28;20168;-64
2022/03/14 08:36:24;;;;;;;19.42;13.35;;;10.00;99.90;;;;;;4973411;28;20047;-64
2022/03/14 08:38:49;;;;;;;21.10;14.77;;;10.10;99.90;;;;;;4959620;28;20117;-64
2022/03/14 08:41:16;;;;;;;18.13;13.77;;;9.90;99.90;;;;;;4935593;28;20383;-64
2022/03/14 08:43:45;;;;;;;17.23;12.35;;;10.00;99.90;;;;;;4948058;28;20050;-66
2022/03/14 08:46:12;;;;;;;17.52;12.88;;;;;;;;;;4922573;28;20995;-65
2022/03/14 08:48:38;;;;;;;17.95;14.05;;;;;;;;;;4960632;28;20400;-65
2022/03/14 08:51:04;;;;;;;17.15;13.40;;;10.20;99.90;;;;;;4957550;28;20071;-66
2022/03/14 08:53:30;;;;;;;19.95;14.45;;;10.10;99.90;;;;;;4963280;28;20076;-65
2022/03/14 08:55:55;;;;;;;23.30;15.80;;;9.90;99.90;;;;;;4964412;28;20533;-66
2022/03/14 08:58:24;;;;;;;21.02;15.48;;;9.90;99.90;;;;;;4972130;28;20132;-66
2022/03/14 09:00:49;;;;;;;22.30;16.20;;;10.00;99.90;;;;;;4950521;28;20047;-66
2022/03/14 09:03:15;;;;;;;23.13;15.75;;;10.00;99.90;;;;;;4969306;28;20038;-66
2022/03/14 09:05:40;;;;;;;21.92;15.70;;;10.00;99.90;;;;;;4963934;28;20042;-66
2022/03/14 09:08:06;;;;;;;22.38;15.23;;;10.10;99.90;;;;;;4974830;28;20039;-65
2022/03/14 09:10:36;;;;;;;19.52;14.60;;;;;;;;;;4949009;28;20091;-66
2022/03/14 09:13:03;;;;;;;22.02;16.05;;;9.90;99.90;;;;;;4950707;28;20500;-66
2022/03/14 09:15:29;;;;;;;16.55;12.20;;;;;;;;;;4951034;28;20047;-65
2022/03/14 09:17:59;;;;;;;19.23;13.93;;;10.00;99.90;;;;;;4957304;28;20432;-66
2022/03/14 09:20:26;;;;;;;20.15;13.75;;;9.90;99.90;;;;;;4942899;29;20078;-66
2022/03/14 09:22:52;;;;;;;20.52;14.32;;;;;;;;;;4961038;28;20500;-65
2022/03/14 09:25:19;;;;;;;24.40;14.77;;;;;;;;;;4956992;28;20043;-64
2022/03/14 09:27:45;;;;;;;22.50;13.60;;;10.20;99.90;;;;;;4953132;28;20079;-65
2022/03/14 09:30:12;;;;;;;25.05;14.07;;;10.00;99.90;;;;;;4961130;28;20459;-65
2022/03/14 09:32:38;;;;;;;27.85;15.68;;;9.90;99.90;;;;;;4958605;28;20039;-65
2022/03/14 09:35:05;;;;;;;26.98;15.23;;;9.90;99.90;;;;;;4975268;28;20062;-64
2022/03/14 09:37:31;;;;;;;25.95;15.32;;;;;;;;;;4938876;29;20538;-64
2022/03/14 09:39:57;;;;;;;24.45;15.23;;;;;;;;;;4972416;28;20082;-64
2022/03/14 09:42:24;;;;;;;25.48;15.05;;;10.10;99.90;;;;;;4957094;28;20081;-65
2022/03/14 09:44:54;;;;;;;25.38;14.82;;;10.00;99.90;;;;;;4941243;28;20065;-65
2022/03/14 09:47:23;;;;;;;25.05;15.23;;;10.00;99.90;;;;;;4951421;28;20055;-65
2022/03/14 09:49:49;;;;;;;26.77;15.35;;;;;;;;;;4934654;28;20172;-66
2022/03/14 09:52:16;;;;;;;25.10;13.77;;;10.00;99.90;;;;;;4993528;28;20043;-65
2022/03/14 09:54:45;;;;;;;27.00;13.57;;;;;;;;;;4961834;28;20031;-61
2022/03/14 09:57:14;;;;;;;25.42;13.13;;;;;;;;;;4977351;28;20535;-65
2022/03/14 09:59:42;;;;;;;20.52;10.90;;;10.10;99.90;;;;;;4957927;28;20046;-66
2022/03/14 10:02:15;;;;;;;22.33;11.75;;;10.20;99.90;;;;;;4973817;28;20050;-59
2022/03/14 10:04:40;;;;;;;21.35;12.13;;;10.20;99.90;;;;;;4953944;28;20493;-60
2022/03/14 10:07:09;;;;;;;25.75;10.98;;;10.30;99.90;;;;;;4966229;28;20043;-62
2022/03/14 10:09:35;;;;;;;17.23;10.82;;;10.40;99.90;;;;;;4955213;28;20509;-66
2022/03/14 10:12:01;;;;;;;18.75;9.80;;;10.30;99.90;;;;;;4960539;28;20050;-65
2022/03/14 10:14:27;;;;;;;18.13;9.77;;;10.20;99.90;;;;;;4956706;28;20058;-66
2022/03/14 10:16:56;;;;;;;14.77;9.00;;;10.20;99.90;;;;;;4951360;28;20401;-66
2022/03/14 10:19:34;;;;;;;18.33;8.57;;;10.40;99.90;;;;;;4952623;29;20051;-64
2022/03/14 10:22:18;;;;;;;15.95;8.88;;;10.30;99.90;;;;;;4949927;28;20051;-64
2022/03/14 10:24:44;;;;;;;18.30;8.75;;;10.40;99.90;;;;;;4958905;28;20498;-64
2022/03/14 10:27:20;;;;;;;17.98;10.18;;;10.50;99.90;;;;;;4952048;29;20059;-65
2022/03/14 10:29:47;;;;;;;16.20;8.85;;;10.60;99.90;;;;;;4952227;28;20047;-64
2022/03/14 10:32:36;;;;;;;16.58;7.65;;;10.50;99.90;;;;;;4942840;28;20079;-64
2022/03/14 10:35:05;;;;;;;18.67;8.85;;;10.50;99.90;;;;;;4990352;28;20060;-64
2022/03/14 10:37:32;;;;;;;17.17;8.18;;;10.50;99.90;;;;;;4950229;28;20425;-64
2022/03/14 10:40:05;;;;;;;17.40;8.57;;;10.40;99.90;;;;;;4952199;28;20063;-64
2022/03/14 10:42:43;;;;;;;13.65;8.43;;;10.60;99.90;;;;;;4955740;28;20031;-65
2022/03/14 10:45:15;;;;;;;10.85;7.43;;;10.60;99.90;;;;;;4967288;28;20489;-65
2022/03/14 10:47:56;;;;;;;17.58;8.25;;;10.40;99.90;;;;;;4947707;28;20061;-64
2022/03/14 10:50:31;;;;;;;13.77;6.97;;;10.40;99.90;;;;;;4947219;28;20043;-64
2022/03/14 10:53:10;;;;;;;10.55;6.90;;;10.40;99.90;;;;;;4946669;28;20409;-63
2022/03/14 10:55:41;;;;;;;12.90;6.95;;;10.50;99.90;;;;;;4953619;28;20058;-65
2022/03/14 10:58:14;;;;;;;15.02;7.85;;;10.60;99.90;;;;;;4958278;28;20408;-64
2022/03/14 11:00:49;;;;;;;13.35;6.93;;;10.50;99.90;;;;;;4950784;28;20078;-65
2022/03/14 11:03:21;;;;;;;15.70;6.97;;;10.60;99.90;;;;;;4953219;28;20134;-61
2022/03/14 11:05:47;;;;;;;15.27;6.80;;;;;;;;;;4973812;28;20070;-64
2022/03/14 11:08:26;;;;;;;13.15;7.57;;;10.60;99.90;;;;;;4968019;28;20035;-65
2022/03/14 11:10:52;;;;;;;15.95;8.38;;;;;;;;;;4947501;28;20039;-62
2022/03/14 11:13:19;;;;;;;19.15;10.05;;;;;;;;;;4954893;28;20044;-62
2022/03/14 11:15:45;;;;;;;16.20;9.10;;;10.70;99.90;;;;;;4949084;28;20051;-60
2022/03/14 11:18:11;;;;;;;20.05;9.93;;;;;;;;;;4948863;28;20047;-66
2022/03/14 11:20:39;;;;;;;17.23;11.02;;;10.70;99.90;;;;;;4954843;28;20039;-62
2022/03/14 11:23:05;;;;;;;23.50;14.18;;;10.90;99.90;;;;;;4952154;29;20130;-60
2022/03/14 11:25:32;;;;;;;20.85;14.27;;;10.70;99.90;;;;;;4944736;28;20054;-61
2022/03/14 11:28:00;;;;;;;25.38;15.98;;;10.90;99.90;;;;;;4956487;28;20046;-60
2022/03/14 11:30:27;;;;;;;28.55;17.38;;;;;;;;;;4959844;28;20039;-62
2022/03/14 11:32:53;;;;;;;24.85;15.52;;;10.90;99.90;;;;;;4960668;28;20093;-62
2022/03/14 11:35:20;;;;;;;23.50;15.73;;;;;;;;;;4960557;28;20066;-61
2022/03/14 11:37:46;;;;;;;24.77;17.48;;;10.80;99.90;;;;;;4946536;28;20051;-62
2022/03/14 11:40:14;;;;;;;26.42;16.00;;;11.00;99.90;;;;;;4937947;28;20428;-63
2022/03/14 11:42:39;;;;;;;29.55;18.45;;;11.00;99.90;;;;;;4953680;28;20454;-63
2022/03/14 11:45:09;;;;;;;29.35;19.38;;;10.90;99.90;;;;;;4950799;28;20130;-63
2022/03/14 11:47:36;;;;;;;28.30;19.75;;;10.90;99.90;;;;;;4951422;28;20073;-63
2022/03/14 11:50:03;;;;;;;27.23;18.08;;;11.00;99.90;;;;;;4946035;28;20039;-63
2022/03/14 11:52:38;;;;;;;23.88;16.55;;;10.90;99.90;;;;;;4953660;28;20045;-64
2022/03/14 11:55:14;;;;;;;;;;;11.10;99.90;;;;;;4936758;29;20040;-61
2022/03/14 11:57:41;;;;;;;26.10;16.98;;;11.00;99.90;;;;;;4981702;28;19926;-61
2022/03/14 12:00:27;;;;;;;27.90;17.58;;;11.00;99.90;;;;;;4967709;28;20039;-60
2022/03/14 12:02:54;;;;;;;26.65;19.60;;;11.10;99.90;;;;;;4965536;28;20078;-65
2022/03/14 12:05:32;;;;;;;28.15;16.95;;;11.10;99.90;;;;;;4961922;28;20038;-65
2022/03/14 12:07:58;;;;;;;23.98;16.45;;;;;;;;;;4960874;28;20039;-65
2022/03/14 12:10:29;;;;;;;25.95;16.73;;;11.20;99.90;;;;;;4945102;28;20583;-64
2022/03/14 12:12:55;;;;;;;25.85;17.95;;;;;;;;;;4955915;28;20377;-63
2022/03/14 12:15:41;;;;;;;21.45;15.52;;;11.30;99.90;;;;;;4950613;28;20104;-63
2022/03/14 12:18:25;;;;;;;23.48;15.85;;;11.40;99.90;;;;;;4973636;28;20174;-63
2022/03/14 12:21:03;;;;;;;23.30;14.70;;;11.40;99.90;;;;;;4958154;28;20046;-63
2022/03/14 12:23:31;;;;;;;23.15;14.80;;;11.30;99.90;;;;;;4971834;28;20091;-64
2022/03/14 12:26:01;;;;;;;25.35;17.17;;;11.50;99.90;;;;;;4928905;28;20123;-62
2022/03/14 12:28:27;;;;;;;24.17;16.50;;;;;;;;;;4947194;28;20404;-62
2022/03/14 12:30:59;;;;;;;26.30;16.83;;;11.80;99.90;;;;;;4961374;28;20031;-63
2022/03/14 12:33:36;;;;;;;30.95;19.02;;;11.80;99.90;;;;;;4957879;28;20041;-61
2022/03/14 12:36:22;;;;;;;29.95;17.85;;;11.90;99.90;;;;;;4961743;28;20048;-62
2022/03/14 12:39:06;;;;;;;20.63;16.65;;;12.00;99.90;;;;;;4950826;28;20112;-62
2022/03/14 12:41:40;;;;;;;33.05;17.50;;;12.20;99.90;;;;;;4969611;28;20054;-63
2022/03/14 12:44:35;;;;;;;27.10;15.63;;;12.30;99.90;;;;;;4970981;28;20029;-62
2022/03/14 12:47:06;;;;;;;19.37;12.93;;;12.40;99.90;;;;;;4958990;28;20417;-63
2022/03/14 12:49:40;;;;;;;25.00;14.70;;;12.40;99.90;;;;;;4940460;28;20305;-63
2022/03/14 12:52:16;;;;;;;26.58;15.32;;;12.40;99.90;;;;;;4951260;28;20054;-64
2022/03/14 12:54:43;;;;;;;20.67;13.95;;;12.70;99.90;;;;;;4955506;28;20043;-63